createdAt,value
2022-10-17T00:01:06.470Z,10.05
2022-10-17T00:03:37.446Z,10.45
2022-10-17T00:06:14.329Z,11.27
2022-10-17T00:08:44.044Z,10.82
2022-10-17T00:11:24.162Z,11.80
2022-10-17T00:13:56.096Z,10.55
2022-10-17T00:16:37.394Z,14.48
2022-10-17T00:19:07.546Z,9.57
2022-10-17T00:21:35.055Z,11.98
2022-10-17T00:24:02.770Z,10.00
2022-10-17T00:26:30.024Z,10.07
2022-10-17T00:28:57.538Z,10.70
2022-10-17T00:31:25.476Z,10.05
2022-10-17T00:33:53.454Z,9.25
2022-10-17T00:36:27.973Z,12.55
2022-10-17T00:38:59.740Z,11.77
2022-10-17T00:41:33.680Z,10.65
2022-10-17T00:44:30.590Z,11.38
2022-10-17T00:47:03.763Z,10.98
2022-10-17T00:49:36.698Z,11.10
2022-10-17T00:52:30.747Z,11.02
2022-10-17T00:55:36.884Z,11.18
2022-10-17T00:58:06.739Z,11.93
2022-10-17T01:00:34.325Z,13.05
2022-10-17T01:03:01.697Z,11.40
2022-10-17T01:05:30.134Z,10.38
2022-10-17T01:07:57.761Z,11.73
2022-10-17T01:10:40.626Z,11.90
2022-10-17T01:13:42.522Z,11.55
2022-10-17T01:17:06.102Z,12.45
2022-10-17T01:20:12.649Z,12.35
2022-10-17T01:23:21.101Z,12.38
2022-10-17T01:30:16.622Z,12.65
2022-10-17T01:33:12.825Z,12.60
2022-10-17T01:36:46.519Z,11.27
2022-10-17T01:39:43.911Z,12.40
2022-10-17T01:42:37.695Z,11.75
2022-10-17T01:45:40.584Z,12.38
2022-10-17T01:48:18.745Z,12.98
2022-10-17T01:51:06.480Z,13.05
2022-10-17T01:53:55.366Z,12.18
2022-10-17T01:56:28.434Z,13.05
2022-10-17T01:59:13.096Z,13.93
2022-10-17T02:01:44.980Z,13.30
2022-10-17T02:04:12.512Z,13.23
2022-10-17T02:06:39.770Z,12.68
2022-10-17T02:09:27.274Z,14.35
2022-10-17T02:12:23.670Z,13.93
2022-10-17T02:15:16.958Z,14.40
2022-10-17T02:18:20.390Z,17.75
2022-10-17T02:20:54.878Z,13.95
2022-10-17T02:24:01.205Z,15.23
2022-10-17T02:26:55.452Z,14.65
2022-10-17T02:29:38.420Z,16.02
2022-10-17T02:32:31.336Z,15.07
2022-10-17T02:35:03.810Z,14.13
2022-10-17T02:37:33.758Z,14.13
2022-10-17T02:40:04.546Z,13.40
2022-10-17T02:42:33.818Z,13.10
2022-10-17T02:45:03.445Z,14.95
2022-10-17T02:47:50.871Z,14.70
2022-10-17T02:53:08.558Z,12.85
2022-10-17T02:55:58.482Z,13.63
2022-10-17T02:58:33.807Z,13.55
2022-10-17T03:01:02.095Z,13.93
2022-10-17T03:03:32.809Z,15.15
2022-10-17T03:06:02.276Z,15.20
2022-10-17T03:08:29.597Z,17.73
2022-10-17T03:10:57.286Z,13.82
2022-10-17T03:13:26.416Z,13.82
2022-10-17T03:15:53.577Z,14.40
2022-10-17T03:18:20.751Z,15.55
2022-10-17T03:20:49.793Z,13.45
2022-10-17T03:23:17.141Z,12.63
2022-10-17T03:25:45.493Z,14.45
2022-10-17T03:28:14.584Z,13.45
2022-10-17T03:30:41.830Z,14.55
2022-10-17T03:33:09.317Z,14.50
2022-10-17T03:35:40.496Z,14.73
2022-10-17T03:38:08.471Z,14.13
2022-10-17T03:40:35.723Z,15.45
2022-10-17T03:43:04.754Z,13.75
2022-10-17T03:45:32.841Z,14.63
2022-10-17T03:48:00.477Z,15.10
2022-10-17T03:50:27.803Z,12.40
2022-10-17T03:52:56.084Z,14.63
2022-10-17T03:55:24.394Z,13.07
2022-10-17T03:57:51.704Z,14.25
2022-10-17T04:00:21.151Z,12.52
2022-10-17T04:02:55.079Z,13.63
2022-10-17T04:05:22.241Z,12.95
2022-10-17T04:07:49.605Z,15.90
2022-10-17T04:10:19.480Z,14.93
2022-10-17T04:12:50.288Z,14.70
2022-10-17T04:15:18.601Z,13.27
2022-10-17T04:17:48.495Z,14.07
2022-10-17T04:20:17.062Z,15.77
2022-10-17T04:22:44.564Z,13.75
2022-10-17T04:25:13.019Z,13.80
2022-10-17T04:27:43.663Z,12.52
2022-10-17T04:30:11.568Z,12.38
2022-10-17T04:32:39.396Z,13.98
2022-10-17T04:35:24.554Z,14.70
2022-10-17T04:38:01.875Z,12.98
2022-10-17T04:40:29.419Z,12.45
2022-10-17T04:42:57.027Z,12.45
2022-10-17T04:45:31.886Z,13.57
2022-10-17T04:48:03.224Z,11.55
2022-10-17T04:50:30.421Z,12.68
2022-10-17T04:53:34.456Z,11.50
2022-10-17T04:56:07.181Z,11.38
2022-10-17T04:58:34.460Z,11.35
2022-10-17T05:01:10.263Z,11.07
2022-10-17T05:03:39.389Z,10.80
2022-10-17T05:06:15.745Z,12.63
2022-10-17T05:08:48.221Z,12.88
2022-10-17T05:11:28.976Z,16.75
2022-10-17T05:14:02.548Z,13.38
2022-10-17T05:16:31.911Z,11.60
2022-10-17T05:18:59.996Z,10.50
2022-10-17T05:24:00.592Z,10.98
2022-10-17T05:26:29.144Z,12.13
2022-10-17T05:28:56.828Z,10.73
2022-10-17T05:31:25.832Z,10.60
2022-10-17T05:33:53.090Z,12.20
2022-10-17T05:36:22.792Z,12.68
2022-10-17T05:38:52.077Z,13.25
2022-10-17T05:41:21.215Z,10.48
2022-10-17T05:43:50.261Z,10.75
2022-10-17T05:46:21.842Z,10.40
2022-10-17T05:48:49.089Z,10.45
2022-10-17T05:51:17.089Z,9.82
2022-10-17T05:53:44.415Z,12.07
2022-10-17T05:56:17.256Z,14.25
2022-10-17T05:58:50.323Z,11.55
2022-10-17T06:01:39.217Z,10.77
2022-10-17T06:04:06.412Z,13.70
2022-10-17T06:06:36.018Z,11.68
2022-10-17T06:09:04.758Z,9.63
2022-10-17T06:11:37.245Z,11.30
2022-10-17T06:14:05.941Z,11.18
2022-10-17T06:16:33.217Z,11.10
2022-10-17T06:19:00.416Z,8.82
2022-10-17T06:21:28.762Z,11.55
2022-10-17T06:24:06.290Z,10.77
2022-10-17T06:26:36.406Z,11.10
2022-10-17T06:29:06.313Z,14.75
2022-10-17T06:31:37.560Z,12.38
2022-10-17T06:34:04.732Z,11.45
2022-10-17T06:36:31.990Z,10.20
2022-10-17T06:38:59.733Z,10.45
2022-10-17T06:41:59.274Z,14.68
2022-10-17T06:44:44.189Z,15.45
2022-10-17T06:47:23.354Z,10.05
2022-10-17T06:49:53.041Z,10.73
2022-10-17T06:52:39.631Z,10.23
2022-10-17T06:55:26.268Z,10.52
2022-10-17T06:58:13.999Z,11.25
2022-10-17T07:00:45.328Z,10.65
2022-10-17T07:03:13.475Z,12.27
2022-10-17T07:05:41.057Z,9.68
2022-10-17T07:08:08.757Z,9.30
2022-10-17T07:10:38.737Z,19.73
2022-10-17T07:13:07.901Z,9.82
2022-10-17T07:15:38.037Z,11.07
2022-10-17T07:18:06.645Z,10.90
2022-10-17T07:20:34.337Z,10.82
2022-10-17T07:23:02.101Z,10.48
2022-10-17T07:25:30.245Z,9.70
2022-10-17T07:28:02.172Z,9.23
2022-10-17T07:30:29.639Z,9.57
2022-10-17T07:33:04.647Z,11.65
2022-10-17T07:35:32.082Z,10.93
2022-10-17T07:37:59.343Z,10.55
2022-10-17T07:40:27.357Z,9.93
2022-10-17T07:42:56.368Z,10.20
2022-10-17T07:45:27.620Z,9.63
2022-10-17T07:47:58.442Z,12.32
2022-10-17T07:50:26.143Z,9.27
2022-10-17T07:52:53.479Z,9.98
2022-10-17T07:55:20.932Z,9.02
2022-10-17T07:57:50.714Z,11.07
2022-10-17T08:00:18.774Z,12.15
2022-10-17T08:02:46.002Z,8.60
2022-10-17T08:05:13.279Z,11.00
2022-10-17T08:07:41.668Z,9.20
2022-10-17T08:10:12.412Z,10.02
2022-10-17T08:12:39.876Z,10.13
2022-10-17T08:15:10.092Z,8.88
2022-10-17T08:17:39.324Z,15.30
2022-10-17T08:20:07.925Z,9.57
2022-10-17T08:22:35.477Z,14.02
2022-10-17T08:25:02.704Z,12.82
2022-10-17T08:27:34.649Z,8.75
2022-10-17T08:30:02.266Z,9.30
2022-10-17T08:32:30.440Z,9.23
2022-10-17T08:34:57.888Z,9.75
2022-10-17T08:37:25.261Z,9.35
2022-10-17T08:39:55.298Z,9.82
2022-10-17T08:42:53.607Z,9.32
2022-10-17T08:45:44.659Z,10.07
2022-10-17T08:48:22.820Z,11.52
2022-10-17T08:51:09.544Z,12.75
2022-10-17T08:54:02.293Z,14.57
2022-10-17T08:56:49.036Z,13.20
2022-10-17T08:59:30.077Z,10.00
2022-10-17T09:02:41.581Z,10.73
2022-10-17T09:05:50.525Z,11.55
2022-10-17T09:08:46.897Z,10.57
2022-10-17T09:12:20.114Z,16.67
2022-10-17T09:15:17.837Z,14.30
2022-10-17T09:18:21.109Z,12.07
2022-10-17T09:21:19.602Z,12.35
2022-10-17T09:24:09.075Z,13.07
2022-10-17T09:26:40.920Z,11.65
2022-10-17T09:29:32.403Z,14.98
2022-10-17T09:32:19.445Z,19.42
2022-10-17T09:34:46.673Z,12.55
2022-10-17T09:37:20.393Z,16.67
2022-10-17T09:39:48.010Z,11.45
2022-10-17T09:42:23.894Z,16.70
2022-10-17T09:45:14.176Z,11.90
2022-10-17T09:48:01.013Z,15.05
2022-10-17T09:50:34.919Z,12.95
2022-10-17T09:53:24.337Z,12.45
2022-10-17T09:56:01.260Z,13.10
2022-10-17T10:01:30.914Z,13.20
2022-10-17T10:04:20.306Z,14.35
2022-10-17T10:07:12.349Z,19.58
2022-10-17T10:09:40.359Z,15.48
2022-10-17T10:12:31.498Z,15.30
2022-10-17T10:14:59.940Z,15.00
2022-10-17T10:17:34.737Z,16.95
2022-10-17T10:20:25.537Z,16.55
2022-10-17T10:23:13.943Z,15.93
2022-10-17T10:26:32.118Z,16.15
2022-10-17T10:29:06.600Z,13.93
2022-10-17T10:31:40.329Z,15.05
2022-10-17T10:34:31.318Z,15.68
2022-10-17T10:37:20.235Z,14.57
2022-10-17T10:40:25.429Z,15.85
2022-10-17T10:43:04.017Z,15.45
2022-10-17T10:45:53.597Z,17.00
2022-10-17T10:49:02.090Z,13.35
2022-10-17T10:54:28.766Z,15.00
2022-10-17T10:57:07.306Z,13.77
2022-10-17T11:00:04.948Z,14.57
2022-10-17T11:03:12.829Z,14.88
2022-10-17T11:06:11.265Z,13.07
2022-10-17T11:09:21.787Z,11.85
2022-10-17T11:12:35.226Z,11.30
2022-10-17T11:15:41.086Z,11.07
2022-10-17T11:18:23.377Z,13.18
2022-10-17T11:21:24.239Z,11.45
2022-10-17T11:24:14.353Z,11.32
2022-10-17T11:27:05.840Z,13.15
2022-10-17T11:29:38.943Z,11.85
2022-10-17T11:32:44.586Z,11.30
2022-10-17T11:35:38.127Z,13.20
2022-10-17T11:39:03.769Z,12.63
2022-10-17T11:41:44.076Z,13.88
2022-10-17T11:44:39.912Z,12.88
2022-10-17T11:47:31.275Z,12.73
2022-10-17T11:55:58.293Z,14.30
2022-10-17T11:58:53.432Z,13.25
2022-10-17T12:01:58.481Z,13.88
2022-10-17T12:04:49.693Z,14.52
2022-10-17T12:08:18.024Z,13.75
2022-10-17T12:11:14.995Z,12.48
2022-10-17T12:13:56.365Z,14.30
2022-10-17T12:16:23.659Z,13.73
2022-10-17T12:19:10.922Z,12.80
2022-10-17T12:22:04.830Z,13.38
2022-10-17T12:24:51.311Z,15.88
2022-10-17T12:27:45.942Z,13.13
2022-10-17T12:30:13.553Z,14.95
2022-10-17T12:33:21.856Z,16.10
2022-10-17T12:36:11.923Z,15.15
2022-10-17T12:38:40.372Z,14.80
2022-10-17T12:41:07.661Z,14.00
2022-10-17T12:43:48.555Z,13.68
2022-10-17T12:46:51.875Z,16.08
2022-10-17T12:49:40.454Z,16.00
2022-10-17T12:52:35.077Z,18.75
2022-10-17T12:55:13.150Z,14.00
2022-10-17T12:58:03.177Z,14.60
2022-10-17T13:00:37.677Z,14.45
2022-10-17T13:03:26.130Z,14.60
2022-10-17T13:06:00.389Z,16.70
2022-10-17T13:08:43.038Z,14.98
2022-10-17T13:11:13.643Z,16.13
2022-10-17T13:13:54.109Z,15.13
2022-10-17T13:17:00.152Z,16.08
2022-10-17T13:19:45.546Z,16.52
2022-10-17T13:22:33.040Z,16.65
2022-10-17T13:25:19.231Z,18.00
2022-10-17T13:27:48.904Z,16.00
2022-10-17T13:30:49.281Z,17.80
2022-10-17T13:33:35.797Z,17.80
2022-10-17T13:36:13.593Z,15.65
2022-10-17T13:38:42.656Z,14.57
2022-10-17T13:41:34.728Z,16.05
2022-10-17T13:44:32.098Z,17.13
2022-10-17T13:46:59.782Z,15.75
2022-10-17T13:49:43.045Z,16.23
2022-10-17T13:52:25.418Z,15.95
2022-10-17T13:54:54.239Z,17.23
2022-10-17T13:57:31.407Z,19.70
2022-10-17T14:00:23.053Z,15.32
2022-10-17T14:02:50.317Z,18.42
2022-10-17T14:05:23.225Z,22.25
2022-10-17T14:08:12.428Z,22.23
2022-10-17T14:10:44.352Z,19.40
2022-10-17T14:13:35.963Z,18.90
2022-10-17T14:16:04.602Z,18.73
2022-10-17T14:18:37.017Z,22.08
2022-10-17T14:24:19.833Z,16.65
2022-10-17T14:26:58.812Z,18.13
2022-10-17T14:29:49.957Z,17.05
2022-10-17T14:32:19.945Z,17.67
2022-10-17T14:35:01.434Z,15.57
2022-10-17T14:37:51.831Z,14.57
2022-10-17T14:40:27.366Z,16.58
2022-10-17T14:42:58.156Z,15.25
2022-10-17T14:45:33.202Z,17.52
2022-10-17T14:48:25.275Z,17.63
2022-10-17T14:51:17.841Z,18.90
2022-10-17T14:54:27.020Z,17.55
2022-10-17T14:56:55.715Z,18.55
2022-10-17T14:59:52.290Z,15.48
2022-10-17T15:02:13.539Z,18.73
2022-10-17T15:04:41.879Z,16.05
2022-10-17T15:07:16.920Z,18.23
2022-10-17T15:09:49.833Z,18.75
2022-10-17T15:12:22.616Z,15.73
2022-10-17T15:14:51.621Z,16.00
2022-10-17T15:17:27.203Z,16.73
2022-10-17T15:19:55.191Z,16.17
2022-10-17T15:22:23.847Z,15.77
2022-10-17T15:24:51.080Z,15.05
2022-10-17T15:27:27.753Z,15.00
2022-10-17T15:32:22.275Z,15.57
2022-10-17T15:34:49.491Z,15.35
2022-10-17T15:37:23.508Z,18.23
2022-10-17T15:39:55.221Z,15.98
2022-10-17T15:42:31.548Z,20.33
2022-10-17T15:44:59.209Z,16.73
2022-10-17T15:47:33.994Z,18.85
2022-10-17T15:50:02.442Z,19.08
2022-10-17T15:52:29.781Z,16.95
2022-10-17T15:54:59.592Z,18.60
2022-10-17T15:57:36.222Z,17.75
2022-10-17T16:00:07.688Z,21.27
2022-10-17T16:02:36.610Z,20.65
2022-10-17T16:05:23.479Z,20.23
2022-10-17T16:07:51.594Z,20.13
2022-10-17T16:10:22.358Z,18.92
2022-10-17T16:12:50.398Z,19.30
2022-10-17T16:15:27.972Z,19.08
2022-10-17T16:18:00.472Z,20.55
2022-10-17T16:20:30.373Z,19.08
2022-10-17T16:23:00.537Z,20.15
2022-10-17T16:25:30.931Z,19.73
2022-10-17T16:28:00.685Z,21.02
2022-10-17T16:30:31.812Z,19.73
2022-10-17T16:32:59.391Z,19.65
2022-10-17T16:35:33.402Z,19.23
2022-10-17T16:38:06.923Z,23.13
2022-10-17T16:40:37.768Z,20.98
2022-10-17T16:43:05.252Z,22.35
2022-10-17T16:45:32.640Z,23.23
2022-10-17T16:48:01.084Z,21.65
2022-10-17T16:50:31.212Z,22.92
2022-10-17T16:52:59.104Z,20.92
2022-10-17T16:55:26.366Z,24.63
2022-10-17T16:57:53.583Z,22.25
2022-10-17T17:00:21.013Z,23.50
2022-10-17T17:02:49.311Z,21.85
2022-10-17T17:05:16.604Z,23.08
2022-10-17T17:07:43.948Z,27.17
2022-10-17T17:10:11.163Z,25.13
2022-10-17T17:12:38.419Z,26.00
2022-10-17T17:15:06.611Z,26.73
2022-10-17T17:17:55.222Z,26.02
2022-10-17T17:20:22.775Z,27.73
2022-10-17T17:22:51.912Z,27.42
2022-10-17T17:25:19.201Z,28.63
2022-10-17T17:27:49.114Z,29.33
2022-10-17T17:30:16.752Z,25.60
2022-10-17T17:32:44.011Z,25.65
2022-10-17T17:35:11.334Z,27.05
2022-10-17T17:37:38.552Z,26.90
2022-10-17T17:40:06.981Z,27.80
2022-10-17T17:42:34.164Z,30.50
2022-10-17T17:45:01.336Z,30.63
2022-10-17T17:47:31.753Z,28.92
2022-10-17T17:49:59.299Z,31.90
2022-10-17T17:52:26.673Z,26.85
2022-10-17T17:54:54.184Z,27.55
2022-10-17T17:57:22.098Z,27.23
2022-10-17T17:59:50.123Z,28.55
2022-10-17T18:02:17.438Z,27.38
2022-10-17T18:04:44.717Z,28.05
2022-10-17T18:07:11.971Z,26.92
2022-10-17T18:09:39.244Z,28.23
2022-10-17T18:12:06.490Z,25.17
2022-10-17T18:14:33.668Z,25.08
2022-10-17T18:17:00.839Z,25.88
2022-10-17T18:19:29.072Z,28.00
2022-10-17T18:21:56.239Z,25.90
2022-10-17T18:24:23.581Z,30.77
2022-10-17T18:26:52.199Z,25.67
2022-10-17T18:29:19.764Z,30.20
2022-10-17T18:31:47.144Z,26.95
2022-10-17T18:34:14.334Z,24.00
2022-10-17T18:36:41.587Z,28.48
2022-10-17T18:39:08.832Z,25.33
2022-10-17T18:41:36.243Z,26.08
2022-10-17T18:44:04.029Z,27.05
2022-10-17T18:46:40.628Z,30.60
2022-10-17T18:49:15.662Z,28.98
2022-10-17T18:51:43.353Z,30.02
2022-10-17T18:54:21.560Z,25.63
2022-10-17T18:56:55.254Z,29.65
2022-10-17T18:59:23.613Z,25.55
2022-10-17T19:01:50.910Z,26.45
2022-10-17T19:04:20.489Z,28.05
2022-10-17T19:06:47.979Z,26.60
2022-10-17T19:09:19.199Z,27.55
2022-10-17T19:11:46.693Z,25.80
2022-10-17T19:14:14.494Z,26.95
2022-10-17T19:16:49.260Z,29.13
2022-10-17T19:19:25.415Z,29.90
2022-10-17T19:21:53.637Z,30.33
2022-10-17T19:24:25.717Z,28.00
2022-10-17T19:26:59.282Z,29.23
2022-10-17T19:29:33.452Z,34.75
2022-10-17T19:32:02.523Z,32.33
2022-10-17T19:34:29.866Z,31.67
2022-10-17T19:36:57.197Z,33.38
2022-10-17T19:39:26.471Z,30.60
2022-10-17T19:41:53.728Z,29.95
2022-10-17T19:44:22.470Z,29.67
2022-10-17T19:46:49.806Z,30.25
2022-10-17T19:49:17.685Z,33.10
2022-10-17T19:51:45.329Z,29.33
2022-10-17T19:54:12.832Z,31.65
2022-10-17T19:56:41.287Z,28.45
2022-10-17T19:59:13.575Z,35.05
2022-10-17T20:01:41.196Z,30.27
2022-10-17T20:04:10.922Z,31.77
2022-10-17T20:06:40.679Z,30.92
2022-10-17T20:09:13.887Z,29.88
2022-10-17T20:11:44.685Z,28.80
2022-10-17T20:14:12.016Z,29.83
2022-10-17T20:16:39.235Z,30.17
2022-10-17T20:19:12.974Z,27.13
2022-10-17T20:21:40.631Z,27.35
2022-10-17T20:24:13.392Z,27.58
2022-10-17T20:26:41.785Z,27.60
2022-10-17T20:29:20.764Z,26.08
2022-10-17T20:31:49.001Z,27.17
2022-10-17T20:34:19.618Z,25.80
2022-10-17T20:36:50.750Z,26.55
2022-10-17T20:39:21.066Z,28.90
2022-10-17T20:41:49.355Z,26.60
2022-10-17T20:44:16.630Z,25.50
2022-10-17T20:47:00.597Z,27.75
2022-10-17T20:49:30.203Z,30.50
2022-10-17T20:51:59.169Z,24.35
2022-10-17T20:54:28.505Z,26.73
2022-10-17T20:56:58.634Z,26.30
2022-10-17T20:59:28.417Z,23.33
2022-10-17T21:01:55.831Z,25.98
2022-10-17T21:07:10.373Z,24.00
2022-10-17T21:09:37.656Z,23.48
2022-10-17T21:12:05.359Z,26.30
2022-10-17T21:14:33.427Z,23.10
2022-10-17T21:17:04.665Z,23.00
2022-10-17T21:19:32.885Z,23.23
2022-10-17T21:22:00.141Z,22.65
2022-10-17T21:24:27.663Z,22.08
2022-10-17T21:26:57.830Z,24.35
2022-10-17T21:29:25.315Z,28.15
2022-10-17T21:31:53.067Z,23.33
2022-10-17T21:34:27.787Z,22.65
2022-10-17T21:36:56.043Z,25.65
2022-10-17T21:39:24.857Z,20.77
2022-10-17T21:41:53.659Z,26.92
2022-10-17T21:44:26.721Z,25.00
2022-10-17T21:46:56.081Z,24.15
2022-10-17T21:49:25.878Z,23.25
2022-10-17T21:51:54.851Z,21.58
2022-10-17T21:54:23.607Z,23.73
2022-10-17T21:56:51.923Z,24.17
2022-10-17T21:59:19.258Z,20.48
2022-10-17T22:01:47.596Z,23.42
2022-10-17T22:04:19.339Z,22.17
2022-10-17T22:06:51.323Z,26.48
2022-10-17T22:09:25.963Z,23.85
2022-10-17T22:11:56.857Z,26.42
2022-10-17T22:14:27.193Z,24.88
2022-10-17T22:16:55.400Z,22.42
2022-10-17T22:19:27.191Z,23.52
2022-10-17T22:21:55.612Z,23.52
2022-10-17T22:24:23.753Z,25.45
2022-10-17T22:26:52.231Z,21.90
2022-10-17T22:29:19.828Z,24.00
2022-10-17T22:31:50.321Z,22.05
2022-10-17T22:34:18.894Z,25.02
2022-10-17T22:36:48.736Z,21.33
2022-10-17T22:39:18.280Z,21.58
2022-10-17T22:41:45.475Z,26.85
2022-10-17T22:44:12.808Z,24.40
2022-10-17T22:46:39.929Z,26.08
2022-10-17T22:49:07.102Z,23.27
2022-10-17T22:51:34.303Z,20.05
2022-10-17T22:54:01.585Z,20.48
2022-10-17T22:56:28.754Z,20.40
2022-10-17T22:58:55.942Z,19.85
2022-10-17T23:01:25.703Z,20.33
2022-10-17T23:03:53.638Z,19.65
2022-10-17T23:06:21.958Z,19.95
2022-10-17T23:08:49.787Z,22.83
2022-10-17T23:11:18.236Z,20.67
2022-10-17T23:13:45.465Z,20.73
2022-10-17T23:16:12.764Z,19.70
2022-10-17T23:18:40.338Z,20.80
2022-10-17T23:21:08.350Z,18.35
2022-10-17T23:23:36.861Z,18.70
2022-10-17T23:26:14.323Z,19.85
2022-10-17T23:28:43.244Z,17.77
2022-10-17T23:31:20.795Z,18.27
2022-10-17T23:33:50.208Z,23.02
2022-10-17T23:36:20.923Z,18.75
2022-10-17T23:38:49.074Z,19.67
2022-10-17T23:41:17.609Z,21.17
2022-10-17T23:43:45.190Z,20.88
2022-10-17T23:46:12.845Z,19.90
2022-10-17T23:48:41.729Z,19.42
2022-10-17T23:51:10.763Z,19.50
2022-10-17T23:53:39.581Z,20.10
2022-10-17T23:56:09.108Z,20.40
2022-10-17T23:58:37.868Z,19.98
